sensor_id;sensor_type;location;lat;lon;timestamp;temperature;humidity
6291;DHT22;3178;48.730;8.990;2022-07-06T00:01:15;15.40;99.90
6291;DHT22;3178;48.730;8.990;2022-07-06T00:03:41;15.40;99.90
6291;DHT22;3178;48.730;8.990;2022-07-06T00:06:07;15.40;99.90
6291;DHT22;3178;48.730;8.990;2022-07-06T00:08:33;15.50;99.90
6291;DHT22;3178;48.730;8.990;2022-07-06T00:10:58;15.30;99.90
6291;DHT22;3178;48.730;8.990;2022-07-06T00:13:24;15.20;99.90
6291;DHT22;3178;48.730;8.990;2022-07-06T00:15:49;15.20;99.90
6291;DHT22;3178;48.730;8.990;2022-07-06T00:18:15;15.30;99.90
6291;DHT22;3178;48.730;8.990;2022-07-06T00:20:41;15.20;99.90
6291;DHT22;3178;48.730;8.990;2022-07-06T00:23:06;15.40;99.90
6291;DHT22;3178;48.730;8.990;2022-07-06T00:25:32;15.20;99.90
6291;DHT22;3178;48.730;8.990;2022-07-06T00:27:57;15.20;99.90
6291;DHT22;3178;48.730;8.990;2022-07-06T00:30:23;15.20;99.90
6291;DHT22;3178;48.730;8.990;2022-07-06T00:32:48;15.30;99.90
6291;DHT22;3178;48.730;8.990;2022-07-06T00:35:14;15.20;99.90
6291;DHT22;3178;48.730;8.990;2022-07-06T00:37:40;15.40;99.90
6291;DHT22;3178;48.730;8.990;2022-07-06T00:40:06;15.30;99.90
6291;DHT22;3178;48.730;8.990;2022-07-06T00:42:46;15.20;99.90
6291;DHT22;3178;48.730;8.990;2022-07-06T00:45:13;15.20;99.90
6291;DHT22;3178;48.730;8.990;2022-07-06T00:47:40;15.30;99.90
6291;DHT22;3178;48.730;8.990;2022-07-06T00:50:08;15.10;99.90
6291;DHT22;3178;48.730;8.990;2022-07-06T00:52:43;15.10;99.90
6291;DHT22;3178;48.730;8.990;2022-07-06T00:55:10;15.10;99.90
6291;DHT22;3178;48.730;8.990;2022-07-06T00:57:37;15.20;99.90
6291;DHT22;3178;48.730;8.990;2022-07-06T01:00:07;15.00;99.90
6291;DHT22;3178;48.730;8.990;2022-07-06T01:02:35;15.10;99.90
6291;DHT22;3178;48.730;8.990;2022-07-06T01:05:03;15.00;99.90
6291;DHT22;3178;48.730;8.990;2022-07-06T01:07:30;15.10;99.90
6291;DHT22;3178;48.730;8.990;2022-07-06T01:09:56;15.00;99.90
6291;DHT22;3178;48.730;8.990;2022-07-06T01:12:23;15.10;99.90
6291;DHT22;3178;48.730;8.990;2022-07-06T01:14:49;14.90;99.90
6291;DHT22;3178;48.730;8.990;2022-07-06T01:17:15;15.00;99.90
6291;DHT22;3178;48.730;8.990;2022-07-06T01:19:41;14.90;99.90
6291;DHT22;3178;48.730;8.990;2022-07-06T01:22:06;14.90;99.90
6291;DHT22;3178;48.730;8.990;2022-07-06T01:24:37;14.70;99.90
6291;DHT22;3178;48.730;8.990;2022-07-06T01:27:06;14.90;99.90
6291;DHT22;3178;48.730;8.990;2022-07-06T01:29:32;14.80;99.90
6291;DHT22;3178;48.730;8.990;2022-07-06T01:31:58;14.90;99.90
6291;DHT22;3178;48.730;8.990;2022-07-06T01:34:24;14.80;99.90
6291;DHT22;3178;48.730;8.990;2022-07-06T01:36:50;14.80;99.90
6291;DHT22;3178;48.730;8.990;2022-07-06T01:39:15;14.70;99.90
6291;DHT22;3178;48.730;8.990;2022-07-06T01:41:41;14.80;99.90
6291;DHT22;3178;48.730;8.990;2022-07-06T01:44:07;14.80;99.90
6291;DHT22;3178;48.730;8.990;2022-07-06T01:46:33;14.80;99.90
6291;DHT22;3178;48.730;8.990;2022-07-06T01:48:59;14.80;99.90
6291;DHT22;3178;48.730;8.990;2022-07-06T01:51:25;14.80;99.90
6291;DHT22;3178;48.730;8.990;2022-07-06T01:53:52;14.60;99.90
6291;DHT22;3178;48.730;8.990;2022-07-06T01:56:18;14.70;99.90
6291;DHT22;3178;48.730;8.990;2022-07-06T01:58:45;14.70;99.90
6291;DHT22;3178;48.730;8.990;2022-07-06T02:01:15;14.60;99.90
6291;DHT22;3178;48.730;8.990;2022-07-06T02:03:42;14.60;99.90
6291;DHT22;3178;48.730;8.990;2022-07-06T02:06:08;14.70;99.90
6291;DHT22;3178;48.730;8.990;2022-07-06T02:08:35;14.60;99.90
6291;DHT22;3178;48.730;8.990;2022-07-06T02:11:02;14.60;99.90
6291;DHT22;3178;48.730;8.990;2022-07-06T02:13:28;14.50;99.90
6291;DHT22;3178;48.730;8.990;2022-07-06T02:15:55;14.60;99.90
6291;DHT22;3178;48.730;8.990;2022-07-06T02:18:21;14.50;99.90
6291;DHT22;3178;48.730;8.990;2022-07-06T02:20:46;14.50;99.90
6291;DHT22;3178;48.730;8.990;2022-07-06T02:23:12;14.50;99.90
6291;DHT22;3178;48.730;8.990;2022-07-06T02:25:38;14.40;99.90
6291;DHT22;3178;48.730;8.990;2022-07-06T02:28:03;14.50;99.90
6291;DHT22;3178;48.730;8.990;2022-07-06T02:30:29;14.40;99.90
6291;DHT22;3178;48.730;8.990;2022-07-06T02:32:54;14.30;99.90
6291;DHT22;3178;48.730;8.990;2022-07-06T02:35:20;14.30;99.90
6291;DHT22;3178;48.730;8.990;2022-07-06T02:37:46;14.30;99.90
6291;DHT22;3178;48.730;8.990;2022-07-06T02:40:12;14.20;99.90
6291;DHT22;3178;48.730;8.990;2022-07-06T02:42:37;14.20;99.90
6291;DHT22;3178;48.730;8.990;2022-07-06T02:45:03;14.20;99.90
6291;DHT22;3178;48.730;8.990;2022-07-06T02:47:29;14.10;99.90
6291;DHT22;3178;48.730;8.990;2022-07-06T02:49:55;14.10;99.90
6291;DHT22;3178;48.730;8.990;2022-07-06T02:52:20;14.10;99.90
6291;DHT22;3178;48.730;8.990;2022-07-06T02:54:46;14.00;99.90
6291;DHT22;3178;48.730;8.990;2022-07-06T02:57:12;14.00;99.90
6291;DHT22;3178;48.730;8.990;2022-07-06T02:59:38;14.00;99.90
6291;DHT22;3178;48.730;8.990;2022-07-06T03:02:06;14.10;99.90
6291;DHT22;3178;48.730;8.990;2022-07-06T03:04:33;13.90;99.90
6291;DHT22;3178;48.730;8.990;2022-07-06T03:06:59;13.90;99.90
6291;DHT22;3178;48.730;8.990;2022-07-06T03:09:24;13.90;99.90
6291;DHT22;3178;48.730;8.990;2022-07-06T03:11:50;13.80;99.90
6291;DHT22;3178;48.730;8.990;2022-07-06T03:14:15;13.80;99.90
6291;DHT22;3178;48.730;8.990;2022-07-06T03:16:41;13.80;99.90
6291;DHT22;3178;48.730;8.990;2022-07-06T03:19:07;13.70;99.90
6291;DHT22;3178;48.730;8.990;2022-07-06T03:21:32;13.60;99.90
6291;DHT22;3178;48.730;8.990;2022-07-06T03:23:58;13.60;99.90
6291;DHT22;3178;48.730;8.990;2022-07-06T03:26:24;13.70;99.90
6291;DHT22;3178;48.730;8.990;2022-07-06T03:28:49;13.60;99.90
6291;DHT22;3178;48.730;8.990;2022-07-06T03:31:15;13.50;99.90
6291;DHT22;3178;48.730;8.990;2022-07-06T03:33:41;13.60;99.90
6291;DHT22;3178;48.730;8.990;2022-07-06T03:36:06;13.60;99.90
6291;DHT22;3178;48.730;8.990;2022-07-06T03:38:33;13.60;99.90
6291;DHT22;3178;48.730;8.990;2022-07-06T03:40:58;13.60;99.90
6291;DHT22;3178;48.730;8.990;2022-07-06T03:43:24;13.60;99.90
6291;DHT22;3178;48.730;8.990;2022-07-06T03:45:49;13.60;99.90
6291;DHT22;3178;48.730;8.990;2022-07-06T03:48:15;13.60;99.90
6291;DHT22;3178;48.730;8.990;2022-07-06T03:50:40;13.50;99.90
6291;DHT22;3178;48.730;8.990;2022-07-06T03:53:06;13.50;99.90
6291;DHT22;3178;48.730;8.990;2022-07-06T03:55:31;13.70;99.90
6291;DHT22;3178;48.730;8.990;2022-07-06T03:57:57;13.60;99.90
6291;DHT22;3178;48.730;8.990;2022-07-06T04:00:22;13.50;99.90
6291;DHT22;3178;48.730;8.990;2022-07-06T04:02:48;13.60;99.90
6291;DHT22;3178;48.730;8.990;2022-07-06T04:05:14;13.70;99.90
6291;DHT22;3178;48.730;8.990;2022-07-06T04:07:39;13.60;99.90
6291;DHT22;3178;48.730;8.990;2022-07-06T04:10:06;13.60;99.90
6291;DHT22;3178;48.730;8.990;2022-07-06T04:12:32;13.70;99.90
6291;DHT22;3178;48.730;8.990;2022-07-06T04:14:57;13.70;99.90
6291;DHT22;3178;48.730;8.990;2022-07-06T04:17:23;13.70;99.90
6291;DHT22;3178;48.730;8.990;2022-07-06T04:20:08;13.70;99.90
6291;DHT22;3178;48.730;8.990;2022-07-06T04:22:37;13.80;99.90
6291;DHT22;3178;48.730;8.990;2022-07-06T04:25:03;13.90;99.90
6291;DHT22;3178;48.730;8.990;2022-07-06T04:27:29;13.80;99.90
6291;DHT22;3178;48.730;8.990;2022-07-06T04:29:54;14.00;99.90
6291;DHT22;3178;48.730;8.990;2022-07-06T04:32:20;13.80;99.90
6291;DHT22;3178;48.730;8.990;2022-07-06T04:34:45;13.90;99.90
6291;DHT22;3178;48.730;8.990;2022-07-06T04:37:11;14.10;99.90
6291;DHT22;3178;48.730;8.990;2022-07-06T04:39:36;14.00;99.90
6291;DHT22;3178;48.730;8.990;2022-07-06T04:42:02;14.10;99.90
6291;DHT22;3178;48.730;8.990;2022-07-06T04:44:28;14.10;99.90
6291;DHT22;3178;48.730;8.990;2022-07-06T04:46:54;14.10;99.90
6291;DHT22;3178;48.730;8.990;2022-07-06T04:49:19;14.20;99.90
6291;DHT22;3178;48.730;8.990;2022-07-06T04:51:45;14.30;99.90
6291;DHT22;3178;48.730;8.990;2022-07-06T04:54:10;14.20;99.90
6291;DHT22;3178;48.730;8.990;2022-07-06T04:56:36;14.50;99.90
6291;DHT22;3178;48.730;8.990;2022-07-06T04:59:02;14.40;99.90
6291;DHT22;3178;48.730;8.990;2022-07-06T05:01:27;14.50;99.90
6291;DHT22;3178;48.730;8.990;2022-07-06T05:03:53;14.60;99.90
6291;DHT22;3178;48.730;8.990;2022-07-06T05:06:18;14.80;99.90
6291;DHT22;3178;48.730;8.990;2022-07-06T05:08:45;14.60;99.90
6291;DHT22;3178;48.730;8.990;2022-07-06T05:11:10;15.00;99.90
6291;DHT22;3178;48.730;8.990;2022-07-06T05:13:36;14.80;99.90
6291;DHT22;3178;48.730;8.990;2022-07-06T05:16:02;15.10;99.90
6291;DHT22;3178;48.730;8.990;2022-07-06T05:18:27;15.10;99.90
6291;DHT22;3178;48.730;8.990;2022-07-06T05:20:53;15.10;99.90
6291;DHT22;3178;48.730;8.990;2022-07-06T05:23:18;15.40;99.90
6291;DHT22;3178;48.730;8.990;2022-07-06T05:25:44;15.30;99.90
6291;DHT22;3178;48.730;8.990;2022-07-06T05:28:09;15.40;99.90
6291;DHT22;3178;48.730;8.990;2022-07-06T05:30:35;15.40;99.90
6291;DHT22;3178;48.730;8.990;2022-07-06T05:33:00;15.50;99.90
6291;DHT22;3178;48.730;8.990;2022-07-06T05:35:26;15.70;99.90
6291;DHT22;3178;48.730;8.990;2022-07-06T05:37:51;15.70;99.90
6291;DHT22;3178;48.730;8.990;2022-07-06T05:40:17;15.70;99.90
6291;DHT22;3178;48.730;8.990;2022-07-06T05:42:43;15.80;99.90
6291;DHT22;3178;48.730;8.990;2022-07-06T05:45:08;16.00;99.90
6291;DHT22;3178;48.730;8.990;2022-07-06T05:47:34;16.10;99.90
6291;DHT22;3178;48.730;8.990;2022-07-06T05:50:18;16.20;99.90
6291;DHT22;3178;48.730;8.990;2022-07-06T05:52:51;16.30;99.90
6291;DHT22;3178;48.730;8.990;2022-07-06T05:55:20;16.40;99.90
6291;DHT22;3178;48.730;8.990;2022-07-06T05:57:46;16.50;99.90
6291;DHT22;3178;48.730;8.990;2022-07-06T06:00:11;16.60;99.90
6291;DHT22;3178;48.730;8.990;2022-07-06T06:02:41;16.70;99.90
6291;DHT22;3178;48.730;8.990;2022-07-06T06:05:09;16.90;99.90
6291;DHT22;3178;48.730;8.990;2022-07-06T06:07:35;16.90;99.90
6291;DHT22;3178;48.730;8.990;2022-07-06T06:10:07;17.10;99.90
6291;DHT22;3178;48.730;8.990;2022-07-06T06:12:32;17.20;99.90
6291;DHT22;3178;48.730;8.990;2022-07-06T06:14:58;17.40;99.90
6291;DHT22;3178;48.730;8.990;2022-07-06T06:17:24;17.50;99.90
6291;DHT22;3178;48.730;8.990;2022-07-06T06:19:49;17.60;99.90
6291;DHT22;3178;48.730;8.990;2022-07-06T06:22:15;17.80;99.90
6291;DHT22;3178;48.730;8.990;2022-07-06T06:24:40;17.80;99.90
6291;DHT22;3178;48.730;8.990;2022-07-06T06:27:06;18.10;99.90
6291;DHT22;3178;48.730;8.990;2022-07-06T06:29:32;18.00;99.90
6291;DHT22;3178;48.730;8.990;2022-07-06T06:31:58;17.90;99.90
6291;DHT22;3178;48.730;8.990;2022-07-06T06:34:23;17.70;99.90
6291;DHT22;3178;48.730;8.990;2022-07-06T06:36:49;17.70;99.90
6291;DHT22;3178;48.730;8.990;2022-07-06T06:39:15;17.80;99.90
6291;DHT22;3178;48.730;8.990;2022-07-06T06:41:40;17.80;99.90
6291;DHT22;3178;48.730;8.990;2022-07-06T06:44:06;17.90;99.90
6291;DHT22;3178;48.730;8.990;2022-07-06T06:46:31;17.90;99.90
6291;DHT22;3178;48.730;8.990;2022-07-06T06:48:57;18.10;99.90
6291;DHT22;3178;48.730;8.990;2022-07-06T06:51:22;18.20;99.90
6291;DHT22;3178;48.730;8.990;2022-07-06T06:53:48;18.50;99.90
6291;DHT22;3178;48.730;8.990;2022-07-06T06:56:14;18.50;99.90
6291;DHT22;3178;48.730;8.990;2022-07-06T06:58:39;18.60;99.90
6291;DHT22;3178;48.730;8.990;2022-07-06T07:01:05;18.80;99.90
6291;DHT22;3178;48.730;8.990;2022-07-06T07:03:31;19.00;99.90
6291;DHT22;3178;48.730;8.990;2022-07-06T07:05:57;19.20;99.90
6291;DHT22;3178;48.730;8.990;2022-07-06T07:08:23;19.40;99.90
6291;DHT22;3178;48.730;8.990;2022-07-06T07:10:48;19.70;99.90
6291;DHT22;3178;48.730;8.990;2022-07-06T07:13:14;19.80;99.90
6291;DHT22;3178;48.730;8.990;2022-07-06T07:15:39;19.90;99.90
6291;DHT22;3178;48.730;8.990;2022-07-06T07:18:05;20.00;99.90
6291;DHT22;3178;48.730;8.990;2022-07-06T07:20:30;20.30;99.90
6291;DHT22;3178;48.730;8.990;2022-07-06T07:22:59;20.30;99.90
6291;DHT22;3178;48.730;8.990;2022-07-06T07:25:24;20.50;99.90
6291;DHT22;3178;48.730;8.990;2022-07-06T07:27:50;20.50;99.90
6291;DHT22;3178;48.730;8.990;2022-07-06T07:30:16;20.70;99.90
6291;DHT22;3178;48.730;8.990;2022-07-06T07:32:41;20.70;99.90
6291;DHT22;3178;48.730;8.990;2022-07-06T07:35:07;20.80;99.90
6291;DHT22;3178;48.730;8.990;2022-07-06T07:37:33;21.00;99.90
6291;DHT22;3178;48.730;8.990;2022-07-06T07:39:59;21.10;99.90
6291;DHT22;3178;48.730;8.990;2022-07-06T07:42:24;21.20;99.90
6291;DHT22;3178;48.730;8.990;2022-07-06T07:44:50;21.20;99.90
6291;DHT22;3178;48.730;8.990;2022-07-06T07:47:15;21.20;99.90
6291;DHT22;3178;48.730;8.990;2022-07-06T07:49:41;21.20;99.90
6291;DHT22;3178;48.730;8.990;2022-07-06T07:52:07;21.40;99.90
6291;DHT22;3178;48.730;8.990;2022-07-06T07:54:32;21.50;99.90
6291;DHT22;3178;48.730;8.990;2022-07-06T07:56:58;21.50;99.90
6291;DHT22;3178;48.730;8.990;2022-07-06T07:59:24;21.50;99.90
6291;DHT22;3178;48.730;8.990;2022-07-06T08:01:50;21.60;99.90
6291;DHT22;3178;48.730;8.990;2022-07-06T08:04:15;21.80;99.90
6291;DHT22;3178;48.730;8.990;2022-07-06T08:06:42;22.00;99.90
6291;DHT22;3178;48.730;8.990;2022-07-06T08:09:07;22.00;99.90
6291;DHT22;3178;48.730;8.990;2022-07-06T08:11:34;22.30;99.90
6291;DHT22;3178;48.730;8.990;2022-07-06T08:14:00;22.60;99.90
6291;DHT22;3178;48.730;8.990;2022-07-06T08:16:26;22.70;99.90
6291;DHT22;3178;48.730;8.990;2022-07-06T08:18:51;22.70;99.90
6291;DHT22;3178;48.730;8.990;2022-07-06T08:21:17;23.00;99.90
6291;DHT22;3178;48.730;8.990;2022-07-06T08:23:43;23.10;99.90
6291;DHT22;3178;48.730;8.990;2022-07-06T08:26:09;23.30;99.90
6291;DHT22;3178;48.730;8.990;2022-07-06T08:28:34;23.10;99.90
6291;DHT22;3178;48.730;8.990;2022-07-06T08:31:00;23.10;99.90
6291;DHT22;3178;48.730;8.990;2022-07-06T08:33:25;23.20;99.90
6291;DHT22;3178;48.730;8.990;2022-07-06T08:35:51;23.30;99.90
6291;DHT22;3178;48.730;8.990;2022-07-06T08:38:17;23.50;99.90
6291;DHT22;3178;48.730;8.990;2022-07-06T08:40:43;23.50;99.90
6291;DHT22;3178;48.730;8.990;2022-07-06T08:43:10;23.60;99.90
6291;DHT22;3178;48.730;8.990;2022-07-06T08:45:37;23.80;99.90
6291;DHT22;3178;48.730;8.990;2022-07-06T08:48:06;23.60;99.90
6291;DHT22;3178;48.730;8.990;2022-07-06T08:50:33;23.70;99.90
6291;DHT22;3178;48.730;8.990;2022-07-06T08:52:59;23.60;99.90
6291;DHT22;3178;48.730;8.990;2022-07-06T08:55:26;23.80;99.90
6291;DHT22;3178;48.730;8.990;2022-07-06T08:57:55;23.80;99.90
6291;DHT22;3178;48.730;8.990;2022-07-06T09:00:21;24.00;99.90
6291;DHT22;3178;48.730;8.990;2022-07-06T09:02:48;24.10;99.90
6291;DHT22;3178;48.730;8.990;2022-07-06T09:05:17;24.20;99.90
6291;DHT22;3178;48.730;8.990;2022-07-06T09:07:45;24.20;99.90
6291;DHT22;3178;48.730;8.990;2022-07-06T09:10:15;24.20;99.90
6291;DHT22;3178;48.730;8.990;2022-07-06T09:12:42;24.40;99.90
6291;DHT22;3178;48.730;8.990;2022-07-06T09:15:07;24.60;99.90
6291;DHT22;3178;48.730;8.990;2022-07-06T09:17:38;24.50;99.90
6291;DHT22;3178;48.730;8.990;2022-07-06T09:20:10;24.30;99.90
6291;DHT22;3178;48.730;8.990;2022-07-06T09:22:36;24.40;99.90
6291;DHT22;3178;48.730;8.990;2022-07-06T09:25:07;24.50;99.90
6291;DHT22;3178;48.730;8.990;2022-07-06T09:27:41;24.80;99.90
6291;DHT22;3178;48.730;8.990;2022-07-06T09:30:09;24.90;99.90
6291;DHT22;3178;48.730;8.990;2022-07-06T09:32:57;24.90;99.90
6291;DHT22;3178;48.730;8.990;2022-07-06T09:35:31;25.00;99.90
6291;DHT22;3178;48.730;8.990;2022-07-06T09:40:36;24.90;99.90
6291;DHT22;3178;48.730;8.990;2022-07-06T09:43:16;24.80;99.90
6291;DHT22;3178;48.730;8.990;2022-07-06T09:45:45;24.60;99.90
6291;DHT22;3178;48.730;8.990;2022-07-06T09:48:16;24.80;99.90
6291;DHT22;3178;48.730;8.990;2022-07-06T09:50:46;24.90;99.90
6291;DHT22;3178;48.730;8.990;2022-07-06T09:53:12;25.20;99.90
6291;DHT22;3178;48.730;8.990;2022-07-06T09:55:42;25.30;99.90
6291;DHT22;3178;48.730;8.990;2022-07-06T09:58:08;25.20;99.90
6291;DHT22;3178;48.730;8.990;2022-07-06T10:00:34;25.10;99.90
6291;DHT22;3178;48.730;8.990;2022-07-06T10:03:00;25.00;99.90
6291;DHT22;3178;48.730;8.990;2022-07-06T10:05:26;25.00;99.90
6291;DHT22;3178;48.730;8.990;2022-07-06T10:07:59;25.00;99.90
6291;DHT22;3178;48.730;8.990;2022-07-06T10:10:29;24.90;99.90
6291;DHT22;3178;48.730;8.990;2022-07-06T10:12:59;25.00;99.90
6291;DHT22;3178;48.730;8.990;2022-07-06T10:15:26;25.00;99.90
6291;DHT22;3178;48.730;8.990;2022-07-06T10:17:53;24.90;99.90
6291;DHT22;3178;48.730;8.990;2022-07-06T10:20:19;25.00;99.90
6291;DHT22;3178;48.730;8.990;2022-07-06T10:22:47;25.10;99.90
6291;DHT22;3178;48.730;8.990;2022-07-06T10:25:17;25.30;99.90
6291;DHT22;3178;48.730;8.990;2022-07-06T10:27:45;25.60;99.90
6291;DHT22;3178;48.730;8.990;2022-07-06T10:30:11;25.70;99.90
6291;DHT22;3178;48.730;8.990;2022-07-06T10:32:39;25.90;99.90
6291;DHT22;3178;48.730;8.990;2022-07-06T10:35:06;25.70;99.90
6291;DHT22;3178;48.730;8.990;2022-07-06T10:37:32;25.50;99.80
6291;DHT22;3178;48.730;8.990;2022-07-06T10:39:59;25.20;99.90
6291;DHT22;3178;48.730;8.990;2022-07-06T10:42:55;25.20;99.90
6291;DHT22;3178;48.730;8.990;2022-07-06T10:53:24;24.80;99.90
6291;DHT22;3178;48.730;8.990;2022-07-06T10:55:55;24.80;99.90
6291;DHT22;3178;48.730;8.990;2022-07-06T10:58:51;24.70;99.90
6291;DHT22;3178;48.730;8.990;2022-07-06T11:01:19;24.40;99.90
6291;DHT22;3178;48.730;8.990;2022-07-06T11:03:48;24.40;99.90
6291;DHT22;3178;48.730;8.990;2022-07-06T11:06:15;24.40;99.90
6291;DHT22;3178;48.730;8.990;2022-07-06T11:08:42;24.50;99.90
6291;DHT22;3178;48.730;8.990;2022-07-06T11:11:13;24.60;99.90
6291;DHT22;3178;48.730;8.990;2022-07-06T11:16:18;24.50;99.90
6291;DHT22;3178;48.730;8.990;2022-07-06T11:18:49;24.80;99.90
6291;DHT22;3178;48.730;8.990;2022-07-06T11:21:20;25.10;99.90
6291;DHT22;3178;48.730;8.990;2022-07-06T11:23:48;25.00;99.90
6291;DHT22;3178;48.730;8.990;2022-07-06T11:26:14;25.00;99.90
6291;DHT22;3178;48.730;8.990;2022-07-06T11:28:41;25.10;99.90
6291;DHT22;3178;48.730;8.990;2022-07-06T11:31:07;25.20;99.90
6291;DHT22;3178;48.730;8.990;2022-07-06T11:33:33;25.30;99.90
6291;DHT22;3178;48.730;8.990;2022-07-06T11:38:40;25.70;99.90
6291;DHT22;3178;48.730;8.990;2022-07-06T11:41:05;25.70;99.90
6291;DHT22;3178;48.730;8.990;2022-07-06T11:43:31;25.70;99.90
6291;DHT22;3178;48.730;8.990;2022-07-06T11:45:57;25.60;99.90
6291;DHT22;3178;48.730;8.990;2022-07-06T11:48:22;25.50;99.90
6291;DHT22;3178;48.730;8.990;2022-07-06T11:51:01;25.50;99.90
6291;DHT22;3178;48.730;8.990;2022-07-06T11:53:27;25.60;99.90
6291;DHT22;3178;48.730;8.990;2022-07-06T11:55:53;25.70;99.90
6291;DHT22;3178;48.730;8.990;2022-07-06T11:58:22;25.50;99.90
6291;DHT22;3178;48.730;8.990;2022-07-06T12:01:09;25.50;99.90
6291;DHT22;3178;48.730;8.990;2022-07-06T12:03:35;25.50;99.90
6291;DHT22;3178;48.730;8.990;2022-07-06T12:06:16;25.50;99.90
6291;DHT22;3178;48.730;8.990;2022-07-06T12:08:49;25.30;99.90
6291;DHT22;3178;48.730;8.990;2022-07-06T12:11:26;25.10;99.90
6291;DHT22;3178;48.730;8.990;2022-07-06T12:13:55;24.80;99.90
6291;DHT22;3178;48.730;8.990;2022-07-06T12:16:28;24.50;99.90
6291;DHT22;3178;48.730;8.990;2022-07-06T12:18:54;24.40;99.40
6291;DHT22;3178;48.730;8.990;2022-07-06T12:21:20;24.30;99.90
6291;DHT22;3178;48.730;8.990;2022-07-06T12:23:50;24.20;99.90
6291;DHT22;3178;48.730;8.990;2022-07-06T12:26:19;23.90;99.90
6291;DHT22;3178;48.730;8.990;2022-07-06T12:28:46;23.80;99.90
6291;DHT22;3178;48.730;8.990;2022-07-06T12:31:37;24.10;99.90
6291;DHT22;3178;48.730;8.990;2022-07-06T12:34:04;24.10;99.90
6291;DHT22;3178;48.730;8.990;2022-07-06T12:36:30;23.90;99.90
6291;DHT22;3178;48.730;8.990;2022-07-06T12:38:56;23.90;99.40
6291;DHT22;3178;48.730;8.990;2022-07-06T12:41:32;24.00;99.90
6291;DHT22;3178;48.730;8.990;2022-07-06T12:44:06;24.00;99.90
6291;DHT22;3178;48.730;8.990;2022-07-06T12:46:37;24.10;99.90
6291;DHT22;3178;48.730;8.990;2022-07-06T12:49:31;24.40;99.90
6291;DHT22;3178;48.730;8.990;2022-07-06T12:54:36;24.70;98.60
6291;DHT22;3178;48.730;8.990;2022-07-06T12:59:28;25.10;99.00
6291;DHT22;3178;48.730;8.990;2022-07-06T13:01:54;25.20;99.90
6291;DHT22;3178;48.730;8.990;2022-07-06T13:04:24;25.30;99.90
6291;DHT22;3178;48.730;8.990;2022-07-06T13:06:51;25.60;99.90
6291;DHT22;3178;48.730;8.990;2022-07-06T13:09:16;25.80;99.90
6291;DHT22;3178;48.730;8.990;2022-07-06T13:11:42;26.00;99.90
6291;DHT22;3178;48.730;8.990;2022-07-06T13:14:08;26.10;99.90
6291;DHT22;3178;48.730;8.990;2022-07-06T13:16:35;26.00;98.00
6291;DHT22;3178;48.730;8.990;2022-07-06T13:19:01;25.80;97.50
6291;DHT22;3178;48.730;8.990;2022-07-06T13:21:27;25.60;96.60
6291;DHT22;3178;48.730;8.990;2022-07-06T13:23:52;25.40;99.60
6291;DHT22;3178;48.730;8.990;2022-07-06T13:26:18;25.40;99.90
6291;DHT22;3178;48.730;8.990;2022-07-06T13:28:44;25.40;99.90
6291;DHT22;3178;48.730;8.990;2022-07-06T13:31:10;25.40;98.00
6291;DHT22;3178;48.730;8.990;2022-07-06T13:33:36;25.30;99.70
6291;DHT22;3178;48.730;8.990;2022-07-06T13:36:01;25.20;97.60
6291;DHT22;3178;48.730;8.990;2022-07-06T13:38:27;25.10;98.60
6291;DHT22;3178;48.730;8.990;2022-07-06T13:40:53;25.30;99.90
6291;DHT22;3178;48.730;8.990;2022-07-06T13:43:19;25.30;98.30
6291;DHT22;3178;48.730;8.990;2022-07-06T13:45:45;25.10;98.00
6291;DHT22;3178;48.730;8.990;2022-07-06T13:48:11;25.10;99.50
6291;DHT22;3178;48.730;8.990;2022-07-06T13:50:37;25.00;98.10
6291;DHT22;3178;48.730;8.990;2022-07-06T13:53:02;24.80;96.70
6291;DHT22;3178;48.730;8.990;2022-07-06T13:55:28;24.60;99.50
6291;DHT22;3178;48.730;8.990;2022-07-06T13:57:54;24.60;98.30
6291;DHT22;3178;48.730;8.990;2022-07-06T14:00:20;24.60;98.00
6291;DHT22;3178;48.730;8.990;2022-07-06T14:02:46;24.60;97.40
6291;DHT22;3178;48.730;8.990;2022-07-06T14:05:12;24.60;98.20
6291;DHT22;3178;48.730;8.990;2022-07-06T14:07:37;24.60;98.50
6291;DHT22;3178;48.730;8.990;2022-07-06T14:10:03;24.60;98.30
6291;DHT22;3178;48.730;8.990;2022-07-06T14:12:29;24.70;99.50
6291;DHT22;3178;48.730;8.990;2022-07-06T14:14:55;24.70;98.40
6291;DHT22;3178;48.730;8.990;2022-07-06T14:17:21;24.80;96.50
6291;DHT22;3178;48.730;8.990;2022-07-06T14:19:48;24.80;99.90
6291;DHT22;3178;48.730;8.990;2022-07-06T14:22:13;24.70;97.20
6291;DHT22;3178;48.730;8.990;2022-07-06T14:24:39;24.60;96.40
6291;DHT22;3178;48.730;8.990;2022-07-06T14:27:04;24.40;97.20
6291;DHT22;3178;48.730;8.990;2022-07-06T14:29:30;24.60;99.10
6291;DHT22;3178;48.730;8.990;2022-07-06T14:31:55;24.50;98.50
6291;DHT22;3178;48.730;8.990;2022-07-06T14:34:21;24.50;96.80
6291;DHT22;3178;48.730;8.990;2022-07-06T14:36:47;24.50;97.60
6291;DHT22;3178;48.730;8.990;2022-07-06T14:39:12;24.40;98.90
6291;DHT22;3178;48.730;8.990;2022-07-06T14:41:41;24.20;95.20
6291;DHT22;3178;48.730;8.990;2022-07-06T14:44:07;24.00;97.00
6291;DHT22;3178;48.730;8.990;2022-07-06T14:46:32;23.90;98.40
6291;DHT22;3178;48.730;8.990;2022-07-06T14:49:00;23.70;97.30
6291;DHT22;3178;48.730;8.990;2022-07-06T14:51:25;23.70;95.70
6291;DHT22;3178;48.730;8.990;2022-07-06T14:53:51;23.90;97.90
6291;DHT22;3178;48.730;8.990;2022-07-06T14:56:17;24.00;97.90
6291;DHT22;3178;48.730;8.990;2022-07-06T14:58:42;24.30;99.90
6291;DHT22;3178;48.730;8.990;2022-07-06T15:01:09;24.20;96.50
6291;DHT22;3178;48.730;8.990;2022-07-06T15:03:34;24.40;96.30
6291;DHT22;3178;48.730;8.990;2022-07-06T15:06:00;24.40;96.90
6291;DHT22;3178;48.730;8.990;2022-07-06T15:08:26;24.40;97.40
6291;DHT22;3178;48.730;8.990;2022-07-06T15:10:51;24.40;96.20
6291;DHT22;3178;48.730;8.990;2022-07-06T15:13:17;24.50;96.50
6291;DHT22;3178;48.730;8.990;2022-07-06T15:15:43;24.40;97.10
6291;DHT22;3178;48.730;8.990;2022-07-06T15:18:09;24.40;97.60
6291;DHT22;3178;48.730;8.990;2022-07-06T15:20:34;24.40;96.30
6291;DHT22;3178;48.730;8.990;2022-07-06T15:23:00;24.20;94.70
6291;DHT22;3178;48.730;8.990;2022-07-06T15:25:26;24.00;94.70
6291;DHT22;3178;48.730;8.990;2022-07-06T15:27:51;23.90;96.90
6291;DHT22;3178;48.730;8.990;2022-07-06T15:30:17;23.90;95.90
6291;DHT22;3178;48.730;8.990;2022-07-06T15:32:43;23.80;95.40
6291;DHT22;3178;48.730;8.990;2022-07-06T15:35:08;23.90;97.20
6291;DHT22;3178;48.730;8.990;2022-07-06T15:37:35;23.80;94.90
6291;DHT22;3178;48.730;8.990;2022-07-06T15:40:04;23.70;96.30
6291;DHT22;3178;48.730;8.990;2022-07-06T15:42:31;23.60;94.90
6291;DHT22;3178;48.730;8.990;2022-07-06T15:44:56;23.60;96.20
6291;DHT22;3178;48.730;8.990;2022-07-06T15:47:22;23.30;95.90
6291;DHT22;3178;48.730;8.990;2022-07-06T15:49:50;23.20;95.20
6291;DHT22;3178;48.730;8.990;2022-07-06T15:52:16;23.10;95.40
6291;DHT22;3178;48.730;8.990;2022-07-06T15:54:42;23.10;95.80
6291;DHT22;3178;48.730;8.990;2022-07-06T15:57:08;23.10;95.20
6291;DHT22;3178;48.730;8.990;2022-07-06T15:59:33;23.30;95.70
6291;DHT22;3178;48.730;8.990;2022-07-06T16:01:59;23.10;94.20
6291;DHT22;3178;48.730;8.990;2022-07-06T16:04:24;23.20;94.30
6291;DHT22;3178;48.730;8.990;2022-07-06T16:06:52;23.10;94.60
6291;DHT22;3178;48.730;8.990;2022-07-06T16:09:17;23.10;93.60
6291;DHT22;3178;48.730;8.990;2022-07-06T16:11:43;23.10;95.30
6291;DHT22;3178;48.730;8.990;2022-07-06T16:14:08;23.00;94.60
6291;DHT22;3178;48.730;8.990;2022-07-06T16:16:35;23.00;94.00
6291;DHT22;3178;48.730;8.990;2022-07-06T16:19:02;22.80;93.90
6291;DHT22;3178;48.730;8.990;2022-07-06T16:21:28;22.70;93.90